HEPS 061100Z 30006KT 9999 SCT025 28/20 Q1016 NOSIG
From batch tds/metars/production/2022/10/6/h11_m26_metars.cache.csv.gz
Observed at (37 minutes ago)
Identifier HEPS
HEPS 061000Z 33005KT 9999 SCT025 27/20 Q1016 NOSIG
From batch tds/metars/production/2022/10/6/h10_m24_metars.cache.csv.gz
Observed at (about 2 hours ago)
Identifier HEPS
HEPS 060900Z 36003KT 9999 SCT025 27/20 Q1016 NOSIG
From batch tds/metars/production/2022/10/6/h09_m29_metars.cache.csv.gz
Observed at (about 3 hours ago)
Identifier HEPS
HEPS 060600Z 30005KT 9999 SCT025 26/20 Q1016 NOSIG
From batch tds/metars/production/2022/10/6/h06_m20_metars.cache.csv.gz
Observed at (about 6 hours ago)
Identifier HEPS
HEPS 060500Z 32006KT 9999 SCT025 25/20 Q1016 NOSIG
From batch tds/metars/production/2022/10/6/h05_m21_metars.cache.csv.gz
Observed at (about 7 hours ago)
Identifier HEPS
HEPS 060400Z 34005KT 9999 SCT025 25/20 Q1016 NOSIG
From batch tds/metars/production/2022/10/6/h04_m54_metars.cache.csv.gz
Observed at (about 8 hours ago)
Identifier HEPS
HEPS 060300Z 33003KT 9999 SCT025 25/20 Q1016 NOSIG
From batch tds/metars/production/2022/10/6/h03_m20_metars.cache.csv.gz
Observed at (about 9 hours ago)
Identifier HEPS
HEPS 060200Z 32004KT 9999 SCT025 24/20 Q1016 NOSIG
From batch tds/metars/production/2022/10/6/h02_m26_metars.cache.csv.gz
Observed at (about 10 hours ago)
Identifier HEPS
HEPS 060100Z 32005KT 9999 SCT025 25/20 Q1016 NOSIG
From batch tds/metars/production/2022/10/6/h01_m51_metars.cache.csv.gz
Observed at (about 11 hours ago)
Identifier HEPS
HEPS 052300Z 03004KT 9999 SCT025 26/21 Q1016 NOSIG
From batch tds/metars/production/2022/10/5/h23_m20_metars.cache.csv.gz
Observed at (about 13 hours ago)
Identifier HEPS
HEPS 052200Z 01004KT 9999 SCT025 26/21 Q1016 NOSIG
From batch tds/metars/production/2022/10/5/h22_m23_metars.cache.csv.gz
Observed at (about 14 hours ago)
Identifier HEPS
HEPS 052100Z 05004KT 9999 SCT025 26/21 Q1016 NOSIG
From batch tds/metars/production/2022/10/5/h21_m27_metars.cache.csv.gz
Observed at (about 15 hours ago)
Identifier HEPS
HEPS 052000Z 31005KT 9999 SCT025 26/21 Q1016 NOSIG
From batch tds/metars/production/2022/10/5/h20_m27_metars.cache.csv.gz
Observed at (about 16 hours ago)
Identifier HEPS
HEPS 051900Z 33006KT 9999 SCT025 26/21 Q1016 NOSIG
From batch tds/metars/production/2022/10/5/h19_m23_metars.cache.csv.gz
Observed at (about 17 hours ago)
Identifier HEPS
HEPS 051700Z 31007KT 9999 SCT025 26/20 Q1015 NOSIG
From batch tds/metars/production/2022/10/5/h17_m55_metars.cache.csv.gz
Observed at (about 19 hours ago)
Identifier HEPS
HEPS 051600Z 32006KT 9999 SCT025 26/20 Q1015 NOSIG
From batch tds/metars/production/2022/10/5/h16_m21_metars.cache.csv.gz
Observed at (about 20 hours ago)
Identifier HEPS
HEPS 051500Z 35007KT 9999 SCT025 26/20 Q1015 NOSIG
From batch tds/metars/production/2022/10/5/h15_m53_metars.cache.csv.gz
Observed at (about 21 hours ago)
Identifier HEPS
HEPS 051400Z 30005KT 9999 SCT025 27/22 Q1015 NOSIG
From batch tds/metars/production/2022/10/5/h14_m27_metars.cache.csv.gz
Observed at (about 22 hours ago)
Identifier HEPS
HEPS 051300Z 35004KT 9999 SCT025 27/21 Q1015 NOSIG
From batch tds/metars/production/2022/10/5/h13_m28_metars.cache.csv.gz
Observed at (about 23 hours ago)
Identifier HEPS
HEPS 051200Z 35004KT 9999 SCT025 28/21 Q1015 NOSIG
From batch tds/metars/production/2022/10/5/h12_m29_metars.cache.csv.gz
Observed at (about 24 hours ago)
Identifier HEPS
HEPS 050800Z 30005KT CAVOK 27/19 Q1015 NOSIG
From batch tds/metars/production/2022/10/5/h08_m25_metars.cache.csv.gz
Observed at (1 day ago)
Identifier HEPS
HEPS 050700Z 32005KT CAVOK 26/19 Q1015 NOSIG
From batch tds/metars/production/2022/10/5/h07_m29_metars.cache.csv.gz
Observed at (1 day ago)
Identifier HEPS
HEPS 050600Z 32006KT CAVOK 26/19 Q1015 NOSIG
From batch tds/metars/production/2022/10/5/h06_m55_metars.cache.csv.gz
Observed at (1 day ago)
Identifier HEPS
HEPS 050500Z 31004KT CAVOK 25/19 Q1014 NOSIG
From batch tds/metars/production/2022/10/5/h05_m55_metars.cache.csv.gz
Observed at (1 day ago)
Identifier HEPS
HEPS 050400Z 32004KT CAVOK 25/19 Q1014 NOSIG
From batch tds/metars/production/2022/10/5/h04_m59_metars.cache.csv.gz
Observed at (1 day ago)
Identifier HEPS
HEPS 050300Z 35004KT CAVOK 25/19 Q1014 NOSIG
From batch tds/metars/production/2022/10/5/h03_m28_metars.cache.csv.gz
Observed at (1 day ago)
Identifier HEPS
HEPS 050200Z 30004KT CAVOK 25/20 Q1014 NOSIG
From batch tds/metars/production/2022/10/5/h02_m20_metars.cache.csv.gz
Observed at (1 day ago)
Identifier HEPS
HEPS 050100Z 32005KT CAVOK 25/20 Q1014 NOSIG
From batch tds/metars/production/2022/10/5/h01_m28_metars.cache.csv.gz
Observed at (1 day ago)
Identifier HEPS
HEPS 050000Z 34004KT CAVOK 25/20 Q1014 NOSIG
From batch tds/metars/production/2022/10/5/h00_m59_metars.cache.csv.gz
Observed at (1 day ago)
Identifier HEPS
HEPS 042200Z 32006KT CAVOK 25/20 Q1014 NOSIG
From batch tds/metars/production/2022/10/4/h22_m21_metars.cache.csv.gz
Observed at (1 day ago)
Identifier HEPS
HEPS 042100Z 32007KT CAVOK 25/20 Q1013 NOSIG
From batch tds/metars/production/2022/10/4/h21_m24_metars.cache.csv.gz
Observed at (1 day ago)
Identifier HEPS
HEPS 042000Z 30005KT CAVOK 26/20 Q1013 NOSIG
From batch tds/metars/production/2022/10/4/h20_m26_metars.cache.csv.gz
Observed at (1 day ago)
Identifier HEPS
HEPS 041900Z 32005KT CAVOK 26/20 Q1013 NOSIG
From batch tds/metars/production/2022/10/4/h19_m27_metars.cache.csv.gz
Observed at (1 day ago)
Identifier HEPS
HEPS 041800Z 34007KT CAVOK 26/20 Q1013 NOSIG
From batch tds/metars/production/2022/10/4/h18_m26_metars.cache.csv.gz
Observed at (1 day ago)
Identifier HEPS
HEPS 041700Z 30007KT CAVOK 26/20 Q1011 NOSIG
From batch tds/metars/production/2022/10/4/h17_m26_metars.cache.csv.gz
Observed at (2 days ago)
Identifier HEPS
HEPS 041600Z 32008KT CAVOK 26/20 Q1011 NOSIG
From batch tds/metars/production/2022/10/4/h16_m29_metars.cache.csv.gz
Observed at (2 days ago)
Identifier HEPS
HEPS 041500Z 33008KT CAVOK 27/21 Q1011 NOSIG
From batch tds/metars/production/2022/10/4/h15_m51_metars.cache.csv.gz
Observed at (2 days ago)
Identifier HEPS
HEPS 041400Z 05006KT CAVOK 26/20 Q1010 NOSIG
From batch tds/metars/production/2022/10/4/h14_m22_metars.cache.csv.gz
Observed at (2 days ago)
Identifier HEPS
HEPS 041300Z 03008KT CAVOK 27/20 Q1010 NOSIG
From batch tds/metars/production/2022/10/4/h13_m56_metars.cache.csv.gz
Observed at (2 days ago)
Identifier HEPS
HEPS 041200Z 04005KT CAVOK 27/20 Q1010 NOSIG
From batch tds/metars/production/2022/10/4/h12_m52_metars.cache.csv.gz
Observed at (2 days ago)
Identifier HEPS
HEPS 041100Z 32008KT CAVOK 27/20 Q1010
From batch tds/metars/production/2022/10/4/h11_m23_metars.cache.csv.gz
Observed at (2 days ago)
Identifier HEPS
HEPS 041000Z 22008KT CAVOK 27/20 Q1011 NOSIG
From batch tds/metars/production/2022/10/4/h10_m59_metars.cache.csv.gz
Observed at (2 days ago)
Identifier HEPS
HEPS 040900Z 33007KT CAVOK 27/20 Q1011 NOSIG
From batch tds/metars/production/2022/10/4/h09_m59_metars.cache.csv.gz
Observed at (2 days ago)
Identifier HEPS
HEPS 040800Z 30010KT CAVOK 27/20 Q1010 NOSIG
From batch tds/metars/production/2022/10/4/h08_m59_metars.cache.csv.gz
Observed at (2 days ago)
Identifier HEPS
HEPS 040600Z 25007KT CAVOK 26/20 Q1010 NOSIG
From batch tds/metars/production/2022/10/4/h06_m50_metars.cache.csv.gz
Observed at (2 days ago)
Identifier HEPS
HEPS 040500Z 30004KT CAVOK 25/18 Q1008 NOSIG
From batch tds/metars/production/2022/10/4/h05_m23_metars.cache.csv.gz
Observed at (2 days ago)
Identifier HEPS
HEPS 040400Z 32005KT CAVOK 24/18 Q1008 NOSIG
From batch tds/metars/production/2022/10/4/h04_m28_metars.cache.csv.gz
Observed at (2 days ago)
Identifier HEPS
talk